Time;durP1;ratioP1;P1;durP2;ratioP2;P2;SDS_P1;SDS_P2;PMS_P1;PMS_P2;Temp;Humidity;BMP_temperature;BMP_pressure;BME280_temperature;BME280_humidity;BME280_pressure;Samples;Min_cycle;Max_cycle;Signal;HPM_P1;HPM_P2
2021/07/04 00:02:03;;;;;;;;;;;;;;;28.36;50.50;99577.59;1736048;82;20163;-77
2021/07/04 00:04:29;;;;;;;;;;;;;;;28.37;50.53;99577.85;1737645;82;20168;-77
2021/07/04 00:06:55;;;;;;;;;;;;;;;28.36;50.56;99573.47;1737585;82;20233;-77
2021/07/04 00:09:22;;;;;;;;;;;;;;;28.36;50.54;99566.58;1737525;82;20143;-77
2021/07/04 00:11:48;;;;;;;;;;;;;;;28.34;50.57;99561.31;1737781;82;20137;-77
2021/07/04 00:14:15;;;;;;;;;;;;;;;28.34;50.54;99559.94;1737408;82;20083;-77
2021/07/04 00:16:43;;;;;;;;;;;;;;;28.35;50.57;99564.95;1737522;82;20157;-77
2021/07/04 00:19:11;;;;;;;;;;;;;;;28.31;50.60;99558.62;1737358;82;20140;-77
2021/07/04 00:21:37;;;;;;;;;;;;;;;28.31;50.60;99561.94;1737531;82;20137;-77
2021/07/04 00:24:04;;;;;;;;;;;;;;;28.35;50.54;99566.33;1737550;82;20429;-77
2021/07/04 00:26:30;;;;;;;;;;;;;;;28.33;50.46;99567.39;1737767;82;20357;-77
2021/07/04 00:28:57;;;;;;;;;;;;;;;28.30;50.45;99560.30;1737438;81;20417;-77
2021/07/04 00:31:23;;;;;;;;;;;;;;;28.29;50.44;99560.83;1738325;81;20140;-77
2021/07/04 00:33:51;;;;;;;;;;;;;;;28.29;50.46;99562.21;1736061;82;20343;-77
2021/07/04 00:36:17;;;;;;;;;;;;;;;28.27;50.49;99556.19;1736448;82;20179;-77
2021/07/04 00:38:43;;;;;;;;;;;;;;;28.25;50.53;99554.31;1737426;82;20142;-77
2021/07/04 00:41:09;;;;;;;;;;;;;;;28.25;50.49;99558.97;1737381;82;20144;-77
2021/07/04 00:43:36;;;;;;;;;;;;;;;28.24;50.50;99558.16;1736740;82;20171;-77
2021/07/04 00:46:03;;;;;;;;;;;;;;;28.22;50.49;99553.52;1737123;82;20186;-77
2021/07/04 00:48:29;;;;;;;;;;;;;;;28.19;50.54;99553.28;1737692;82;20099;-77
2021/07/04 00:50:57;;;;;;;;;;;;;;;28.18;50.66;99549.72;1737485;82;20136;-77
2021/07/04 00:53:25;;;;;;;;;;;;;;;28.19;50.64;99545.03;1737402;82;20192;-77
2021/07/04 00:55:52;;;;;;;;;;;;;;;28.17;50.59;99541.20;1737528;82;20141;-77
2021/07/04 00:58:20;;;;;;;;;;;;;;;28.16;50.60;99547.83;1737396;82;20136;-77
2021/07/04 01:00:47;;;;;;;;;;;;;;;28.16;50.55;99543.70;1737414;82;20137;-77
2021/07/04 01:03:14;;;;;;;;;;;;;;;28.16;50.49;99547.83;1737452;82;20443;-78
2021/07/04 01:05:42;;;;;;;;;;;;;;;28.13;50.55;99547.59;1737508;82;20168;-77
2021/07/04 01:08:08;;;;;;;;;;;;;;;28.13;50.52;99544.28;1737238;82;20136;-77
2021/07/04 01:10:37;;;;;;;;;;;;;;;28.08;50.67;99544.92;1737482;82;20160;-78
2021/07/04 01:13:05;;;;;;;;;;;;;;;28.05;50.77;99549.07;1736073;82;20200;-78
2021/07/04 01:15:33;;;;;;;;;;;;;;;28.02;50.84;99552.41;1735781;82;20452;-77
2021/07/04 01:18:01;;;;;;;;;;;;;;;27.99;50.93;99555.77;1736171;82;20169;-77
2021/07/04 01:20:29;;;;;;;;;;;;;;;27.95;50.97;99564.35;1735967;82;20452;-77
2021/07/04 01:23:10;;;;;;;;;;;;;;;27.91;51.05;99573.75;1715316;82;20164;-77
2021/07/04 01:25:48;;;;;;;;;;;;;;;27.89;51.11;99574.61;1736367;82;20141;-77
2021/07/04 01:28:16;;;;;;;;;;;;;;;27.85;51.22;99579.63;1740194;82;20136;-76
2021/07/04 01:30:44;;;;;;;;;;;;;;;27.83;51.26;99577.70;1736092;82;20154;-77
2021/07/04 01:33:11;;;;;;;;;;;;;;;27.83;51.31;99581.83;1736074;82;20179;-77
2021/07/04 01:35:37;;;;;;;;;;;;;;;27.80;51.33;99581.32;1735966;82;20199;-78
2021/07/04 01:38:03;;;;;;;;;;;;;;;27.79;51.38;99581.03;1736164;82;20727;-78
2021/07/04 01:40:31;;;;;;;;;;;;;;;27.79;51.45;99585.16;1735666;82;20183;-77
2021/07/04 01:42:57;;;;;;;;;;;;;;;27.81;51.45;99588.45;1736898;82;20117;-78
2021/07/04 01:45:25;;;;;;;;;;;;;;;27.84;51.39;99593.09;1739842;82;20187;-78
2021/07/04 01:47:56;;;;;;;;;;;;;;;27.84;51.24;99588.97;1736954;82;20165;-78
2021/07/04 01:50:28;;;;;;;;;;;;;;;27.80;51.19;99599.21;1740599;82;20625;-79
2021/07/04 01:52:54;;;;;;;;;;;;;;;27.78;51.22;99598.66;1737552;82;20162;-78
2021/07/04 01:55:23;;;;;;;;;;;;;;;27.80;51.12;99606.65;1740524;82;20181;-78
2021/07/04 01:57:50;;;;;;;;;;;;;;;27.82;51.15;99605.78;1738029;82;20138;-78
2021/07/04 02:00:20;;;;;;;;;;;;;;;27.83;51.24;99604.66;1737853;82;20141;-78
2021/07/04 02:02:51;;;;;;;;;;;;;;;27.81;51.30;99602.78;1740142;81;20158;-78
2021/07/04 02:05:20;;;;;;;;;;;;;;;27.79;51.36;99601.67;1738448;81;20166;-79
2021/07/04 02:07:49;;;;;;;;;;;;;;;27.80;51.32;99595.08;1739606;82;20313;-76
2021/07/04 02:10:18;;;;;;;;;;;;;;;27.77;51.43;99601.16;1737525;82;20426;-78
2021/07/04 02:12:44;;;;;;;;;;;;;;;27.78;51.46;99600.04;1740166;82;20187;-78
2021/07/04 02:15:16;;;;;;;;;;;;;;;27.77;51.47;99602.53;1737914;82;20162;-79
2021/07/04 02:17:56;;;;;;;;;;;;;;;27.77;51.50;99599.78;1736481;82;20182;-78
2021/07/04 02:20:53;;;;;;;;;;;;;;;27.79;51.51;99609.93;1744196;81;20148;-77
2021/07/04 02:23:37;;;;;;;;;;;;;;;27.79;51.44;99603.61;1738441;81;20412;-77
2021/07/04 02:26:06;;;;;;;;;;;;;;;27.79;51.45;99611.86;1741237;81;20223;-78
2021/07/04 02:28:34;;;;;;;;;;;;;;;27.78;51.52;99616.55;1738178;81;20490;-77
2021/07/04 02:31:02;;;;;;;;;;;;;;;27.78;51.56;99623.99;1738354;81;20360;-77
2021/07/04 02:33:30;;;;;;;;;;;;;;;27.77;51.62;99627.30;1740183;82;20332;-77
2021/07/04 02:35:57;;;;;;;;;;;;;;;27.80;51.63;99626.73;1740469;82;20163;-77
2021/07/04 02:38:25;;;;;;;;;;;;;;;27.80;51.71;99629.48;1740116;82;20285;-77
2021/07/04 02:40:52;;;;;;;;;;;;;;;27.85;51.75;99636.05;1740520;82;20128;-78
2021/07/04 02:43:22;;;;;;;;;;;;;;;27.88;51.79;99634.87;1737596;82;20144;-78
2021/07/04 02:45:50;;;;;;;;;;;;;;;27.92;51.93;99637.87;1738207;82;20150;-77
2021/07/04 02:48:18;;;;;;;;;;;;;;;27.92;52.00;99640.06;1737767;82;20135;-77
2021/07/04 02:50:51;;;;;;;;;;;;;;;27.92;52.11;99643.37;1737654;82;20122;-77
2021/07/04 02:53:19;;;;;;;;;;;;;;;27.93;52.21;99650.52;1737527;82;20143;-78
2021/07/04 02:55:46;;;;;;;;;;;;;;;27.93;52.32;99654.08;1737880;80;20154;-78
2021/07/04 02:58:13;;;;;;;;;;;;;;;27.96;52.41;99655.44;1740155;81;20480;-77
2021/07/04 03:00:41;;;;;;;;;;;;;;;27.99;52.48;99657.62;1740577;82;20174;-78
2021/07/04 03:03:08;;;;;;;;;;;;;;;28.01;52.51;99662.27;1740253;82;20155;-78
2021/07/04 03:05:36;;;;;;;;;;;;;;;28.04;52.56;99660.31;1740294;82;20484;-78
2021/07/04 03:08:04;;;;;;;;;;;;;;;28.07;52.62;99659.73;1739276;82;20622;-78
2021/07/04 03:10:30;;;;;;;;;;;;;;;28.11;52.65;99666.27;1738931;82;20218;-78
2021/07/04 03:12:58;;;;;;;;;;;;;;;28.14;52.79;99670.38;1739046;82;20337;-78
2021/07/04 03:15:25;;;;;;;;;;;;;;;28.17;52.86;99669.24;1739473;82;20245;-77
2021/07/04 03:17:51;;;;;;;;;;;;;;;28.21;52.94;99668.10;1738846;82;20210;-78
2021/07/04 03:20:18;;;;;;;;;;;;;;;28.22;53.02;99664.23;1738974;82;20486;-77
2021/07/04 03:22:46;;;;;;;;;;;;;;;28.21;52.96;99668.92;1738836;82;20215;-78
2021/07/04 03:25:15;;;;;;;;;;;;;;;28.19;52.73;99669.75;1739066;82;20251;-78
2021/07/04 03:27:42;;;;;;;;;;;;;;;28.20;52.59;99668.63;1739203;82;20478;-78
2021/07/04 03:30:13;;;;;;;;;;;;;;;28.21;52.39;99670.30;1739809;82;20202;-77
2021/07/04 03:32:39;;;;;;;;;;;;;;;28.22;52.24;99673.87;1740844;82;20170;-78
2021/07/04 03:35:08;;;;;;;;;;;;;;;28.18;52.29;99673.63;1740625;82;20178;-78
2021/07/04 03:37:35;;;;;;;;;;;;;;;28.16;52.37;99675.87;1739782;81;20183;-77
2021/07/04 03:40:04;;;;;;;;;;;;;;;28.14;52.46;99673.95;1737734;81;20441;-78
2021/07/04 03:42:31;;;;;;;;;;;;;;;28.15;52.52;99676.14;1737359;82;20136;-78
2021/07/04 03:44:57;;;;;;;;;;;;;;;28.16;52.64;99669.52;1736454;82;20395;-78
2021/07/04 03:47:25;;;;;;;;;;;;;;;28.19;52.67;99667.56;1737321;82;20196;-78
2021/07/04 03:49:53;;;;;;;;;;;;;;;28.21;52.68;99666.73;1737243;82;20140;-78
2021/07/04 03:52:21;;;;;;;;;;;;;;;28.20;52.69;99668.63;1737915;82;20200;-78
2021/07/04 03:54:48;;;;;;;;;;;;;;;28.20;52.65;99656.23;1738199;82;20160;-78
2021/07/04 03:57:21;;;;;;;;;;;;;;;28.25;52.59;99656.20;1736481;82;20196;-78
2021/07/04 03:59:52;;;;;;;;;;;;;;;28.28;52.64;99652.84;1735706;81;20310;-78
2021/07/04 04:02:19;;;;;;;;;;;;;;;28.30;52.70;99645.12;1737845;81;20180;-78
2021/07/04 04:04:45;;;;;;;;;;;;;;;28.35;52.63;99648.95;1686523;84;20186;-77
2021/07/04 04:07:11;;;;;;;;;;;;;;;28.33;52.62;99647.26;1734681;82;20244;-77
2021/07/04 04:09:37;;;;;;;;;;;;;;;28.34;52.68;99649.45;1736107;82;20203;-78
2021/07/04 04:12:06;;;;;;;;;;;;;;;28.35;52.73;99647.58;1734956;82;20150;-78
2021/07/04 04:14:34;;;;;;;;;;;;;;;28.38;52.81;99648.34;1739947;82;20181;-78
2021/07/04 04:17:02;;;;;;;;;;;;;;;28.44;52.85;99647.17;1736612;82;20189;-77
2021/07/04 04:19:31;;;;;;;;;;;;;;;28.50;52.82;99647.36;1736615;82;20166;-76
2021/07/04 04:21:57;;;;;;;;;;;;;;;28.56;52.76;99645.60;1737320;82;20150;-77
2021/07/04 04:24:24;;;;;;;;;;;;;;;28.62;52.75;99642.23;1737668;82;20169;-77
2021/07/04 04:26:51;;;;;;;;;;;;;;;28.68;52.72;99645.73;1737824;82;20142;-76
2021/07/04 04:29:17;;;;;;;;;;;;;;;28.75;52.69;99647.01;1738085;82;20150;-77
2021/07/04 04:31:43;;;;;;;;;;;;;;;28.77;52.64;99646.13;1737477;82;20156;-77
2021/07/04 04:34:10;;;;;;;;;;;;;;;28.93;52.45;99648.64;1735008;81;20168;-77
2021/07/04 04:36:36;;;;;;;;;;;;;;;29.02;52.25;99648.26;1732795;82;20217;-77
2021/07/04 04:39:04;;;;;;;;;;;;;;;29.11;52.12;99655.29;1736272;82;20234;-77
2021/07/04 04:41:32;;;;;;;;;;;;;;;29.16;52.03;99651.06;1736838;82;20437;-77
2021/07/04 04:43:58;;;;;;;;;;;;;;;29.20;51.95;99656.23;1736744;82;20626;-77
2021/07/04 04:46:24;;;;;;;;;;;;;;;29.32;51.67;99658.80;1736096;82;20175;-78
2021/07/04 04:48:50;;;;;;;;;;;;;;;29.36;51.44;99658.20;1735862;82;20658;-77
2021/07/04 04:51:16;;;;;;;;;;;;;;;29.43;51.20;99665.50;1734926;81;20171;-77
2021/07/04 04:53:42;;;;;;;;;;;;;;;29.47;51.11;99663.22;1707989;84;20307;-77
2021/07/04 04:56:08;;;;;;;;;;;;;;;29.51;51.24;99665.63;1734317;81;20148;-77
2021/07/04 04:58:34;;;;;;;;;;;;;;;29.56;51.20;99661.99;1735555;81;20537;-77
2021/07/04 05:01:00;;;;;;;;;;;;;;;29.61;51.16;99664.66;1738523;82;20237;-77
2021/07/04 05:03:26;;;;;;;;;;;;;;;29.67;51.04;99660.70;1707695;84;20271;-77
2021/07/04 05:05:52;;;;;;;;;;;;;;;29.76;50.72;99657.48;1735600;82;20505;-77
2021/07/04 05:08:18;;;;;;;;;;;;;;;29.88;50.58;99657.54;1735468;82;20181;-77
2021/07/04 05:10:44;;;;;;;;;;;;;;;29.92;50.41;99654.42;1745186;81;20152;-76
2021/07/04 05:13:10;;;;;;;;;;;;;;;29.97;50.21;99656.52;1734607;81;20448;-76
2021/07/04 05:15:36;;;;;;;;;;;;;;;30.03;49.96;99658.64;1739454;81;20181;-76
2021/07/04 05:18:05;;;;;;;;;;;;;;;30.06;49.90;99656.63;1734691;82;20340;-77
2021/07/04 05:20:32;;;;;;;;;;;;;;;30.10;49.93;99658.21;1734466;82;20200;-77
2021/07/04 05:23:00;;;;;;;;;;;;;;;30.09;49.83;99653.25;1758802;81;20439;-76
2021/07/04 05:25:27;;;;;;;;;;;;;;;30.14;49.71;99657.32;1734477;81;20238;-77
2021/07/04 05:27:59;;;;;;;;;;;;;;;30.16;49.82;99647.34;1734116;81;20168;-76
2021/07/04 05:30:23;;;;;;;;;;;;;;;30.17;49.80;99645.66;1751575;80;20166;-77
2021/07/04 05:32:49;;;;;;;;;;;;;;;30.22;49.77;99645.55;1734200;81;20766;-77
2021/07/04 05:35:14;;;;;;;;;;;;;;;30.24;49.34;99646.05;1731373;82;20169;-77
2021/07/04 05:37:40;;;;;;;;;;;;;;;30.28;49.10;99644.88;1733707;82;20216;-77
2021/07/04 05:40:13;;;;;;;;;;;;;;;30.29;49.18;99646.51;1733290;82;20262;-77
2021/07/04 05:42:38;;;;;;;;;;;;;;;30.31;49.12;99642.33;1735544;82;20142;-77
2021/07/04 05:45:09;;;;;;;;;;;;;;;30.62;48.32;99643.60;1735170;82;20145;-77
2021/07/04 05:47:35;;;;;;;;;;;;;;;30.41;48.64;99647.38;1735640;81;20154;-77
2021/07/04 05:50:01;;;;;;;;;;;;;;;30.39;48.19;99641.32;1736613;82;20768;-78
2021/07/04 05:52:27;;;;;;;;;;;;;;;30.38;48.18;99642.45;1735662;81;20193;-78
2021/07/04 05:54:55;;;;;;;;;;;;;;;30.41;48.26;99643.23;1735608;82;20184;-77
2021/07/04 05:57:22;;;;;;;;;;;;;;;30.45;48.13;99646.45;1712046;82;20191;-78
2021/07/04 05:59:48;;;;;;;;;;;;;;;30.51;48.24;99645.76;1734636;82;20331;-76
2021/07/04 06:02:14;;;;;;;;;;;;;;;30.58;48.00;99646.16;1734495;82;20190;-78
2021/07/04 06:04:40;;;;;;;;;;;;;;;30.64;48.02;99642.14;1735634;81;20663;-77
2021/07/04 06:07:06;;;;;;;;;;;;;;;30.72;48.13;99646.97;1735398;81;20257;-78
2021/07/04 06:09:32;;;;;;;;;;;;;;;30.80;48.00;99645.42;1705132;84;20621;-77
2021/07/04 06:11:58;;;;;;;;;;;;;;;30.88;47.85;99644.65;1733889;81;20174;-78
2021/07/04 06:14:24;;;;;;;;;;;;;;;30.97;47.80;99649.69;1736266;81;20182;-77
2021/07/04 06:16:51;;;;;;;;;;;;;;;31.08;47.91;99650.27;1736382;82;20436;-78
2021/07/04 06:19:19;;;;;;;;;;;;;;;31.19;47.57;99654.41;1737614;82;20103;-77
2021/07/04 06:21:46;;;;;;;;;;;;;;;31.29;47.06;99654.17;1734788;81;20179;-77
2021/07/04 06:24:12;;;;;;;;;;;;;;;31.36;46.96;99658.47;1703093;84;20179;-77
2021/07/04 06:26:38;;;;;;;;;;;;;;;31.45;46.76;99657.38;1732019;81;20426;-77
2021/07/04 06:29:04;;;;;;;;;;;;;;;31.55;46.81;99660.45;1760377;81;20235;-76
2021/07/04 06:31:32;;;;;;;;;;;;;;;31.64;46.74;99666.84;1747832;81;20199;-77
2021/07/04 06:33:58;;;;;;;;;;;;;;;31.77;46.60;99659.59;1703189;84;20223;-76
2021/07/04 06:36:25;;;;;;;;;;;;;;;31.90;46.24;99666.20;1703023;84;20195;-77
2021/07/04 06:38:51;;;;;;;;;;;;;;;32.04;46.30;99660.78;1719425;82;20519;-77
2021/07/04 06:41:17;;;;;;;;;;;;;;;32.18;46.07;99652.92;1735852;82;20180;-77
2021/07/04 06:43:44;;;;;;;;;;;;;;;32.28;45.38;99661.74;1734966;81;20187;-77
2021/07/04 06:46:10;;;;;;;;;;;;;;;32.33;45.10;99658.82;1710065;83;20747;-77
2021/07/04 06:48:39;;;;;;;;;;;;;;;32.33;44.65;99664.36;1707377;83;20432;-76
2021/07/04 06:51:06;;;;;;;;;;;;;;;32.25;45.15;99665.19;1706525;84;20139;-76
2021/07/04 06:53:32;;;;;;;;;;;;;;;32.35;44.98;99660.48;1737875;82;20234;-77
2021/07/04 06:55:58;;;;;;;;;;;;;;;32.41;44.93;99654.47;1736517;81;20695;-77
2021/07/04 06:58:24;;;;;;;;;;;;;;;32.37;45.17;99654.88;1736554;82;20134;-77
2021/07/04 07:00:53;;;;;;;;;;;;;;;32.44;44.92;99653.84;1731521;82;20209;-77
2021/07/04 07:03:19;;;;;;;;;;;;;;;32.53;44.79;99648.31;1737930;81;20551;-77
2021/07/04 07:05:45;;;;;;;;;;;;;;;32.63;44.58;99647.98;1734062;82;20139;-78
2021/07/04 07:08:12;;;;;;;;;;;;;;;32.71;44.52;99637.48;1735915;82;20148;-77
2021/07/04 07:10:38;;;;;;;;;;;;;;;32.82;44.42;99642.12;1735534;81;20151;-77
2021/07/04 07:13:05;;;;;;;;;;;;;;;32.92;44.34;99641.00;1732090;82;20184;-77
2021/07/04 07:15:33;;;;;;;;;;;;;;;33.03;43.80;99638.97;1733784;82;20406;-78
2021/07/04 07:17:59;;;;;;;;;;;;;;;33.11;43.56;99637.30;1734013;82;20134;-79
2021/07/04 07:20:25;;;;;;;;;;;;;;;33.23;43.68;99641.62;1720599;82;20380;-76
2021/07/04 07:22:51;;;;;;;;;;;;;;;33.36;43.47;99644.55;1735885;81;20139;-77
2021/07/04 07:25:19;;;;;;;;;;;;;;;33.43;43.22;99654.04;1705461;83;20185;-76
2021/07/04 07:27:47;;;;;;;;;;;;;;;33.52;42.89;99657.61;1714471;82;20155;-77
2021/07/04 07:30:14;;;;;;;;;;;;;;;33.54;42.86;99650.33;1724973;82;20227;-77
2021/07/04 07:32:40;;;;;;;;;;;;;;;33.62;43.12;99655.63;1731586;82;20141;-77
2021/07/04 07:35:07;;;;;;;;;;;;;;;33.73;42.77;99661.05;1739159;82;20144;-78
2021/07/04 07:37:34;;;;;;;;;;;;;;;33.81;42.68;99661.02;1738827;82;20135;-77
2021/07/04 07:40:00;;;;;;;;;;;;;;;33.88;42.56;99661.87;1736936;82;20213;-77
2021/07/04 07:42:26;;;;;;;;;;;;;;;33.97;42.60;99664.64;1736159;81;20683;-77
2021/07/04 07:44:51;;;;;;;;;;;;;;;34.02;42.42;99667.23;1758006;81;20206;-77
2021/07/04 07:47:18;;;;;;;;;;;;;;;34.07;42.39;99662.91;1759512;81;20149;-77
2021/07/04 07:49:47;;;;;;;;;;;;;;;34.07;42.05;99668.46;1738847;81;20155;-77
2021/07/04 07:52:13;;;;;;;;;;;;;;;34.09;41.97;99670.32;1741704;81;20140;-77
2021/07/04 07:54:40;;;;;;;;;;;;;;;34.12;41.77;99672.44;1713715;83;20433;-77
2021/07/04 07:57:08;;;;;;;;;;;;;;;34.13;41.51;99669.08;1736747;81;20159;-76
2021/07/04 07:59:36;;;;;;;;;;;;;;;34.11;41.51;99672.17;1676975;85;20172;-77
2021/07/04 08:02:06;;;;;;;;;;;;;;;34.13;41.35;99666.30;1676647;85;20207;-77
2021/07/04 08:04:33;;;;;;;;;;;;;;;34.17;41.62;99668.08;1709890;83;20142;-76
2021/07/04 08:07:01;;;;;;;;;;;;;;;34.23;41.15;99662.55;1688088;84;20137;-77
2021/07/04 08:09:29;;;;;;;;;;;;;;;34.26;40.57;99664.67;1703884;84;20459;-77
2021/07/04 08:11:58;;;;;;;;;;;;;;;34.25;40.68;99665.83;1703025;84;20178;-76
2021/07/04 08:14:24;;;;;;;;;;;;;;;34.23;40.66;99662.55;1705005;84;20465;-77
2021/07/04 08:16:53;;;;;;;;;;;;;;;34.26;40.61;99668.84;1737659;82;21058;-77
2021/07/04 08:19:20;;;;;;;;;;;;;;;34.27;40.23;99670.47;1737060;82;20452;-76
2021/07/04 08:21:48;;;;;;;;;;;;;;;34.26;39.91;99670.81;1701510;83;20143;-77
2021/07/04 08:24:16;;;;;;;;;;;;;;;34.26;40.11;99674.98;1741713;81;20179;-77
2021/07/04 08:26:46;;;;;;;;;;;;;;;34.31;39.78;99671.42;1701854;82;20137;-77
2021/07/04 08:29:14;;;;;;;;;;;;;;;34.32;39.62;99665.28;1733166;81;20400;-77
2021/07/04 08:31:40;;;;;;;;;;;;;;;34.31;39.41;99667.25;1737073;82;20150;-77
2021/07/04 08:34:06;;;;;;;;;;;;;;;34.25;39.85;99667.22;1734851;82;21532;-77
2021/07/04 08:36:32;;;;;;;;;;;;;;;34.27;38.82;99666.88;1734177;82;20182;-77
2021/07/04 08:38:59;;;;;;;;;;;;;;;34.25;39.35;99664.44;1731851;81;20158;-77
2021/07/04 08:41:25;;;;;;;;;;;;;;;34.27;39.71;99668.27;1733667;82;20702;-77
2021/07/04 08:43:56;;;;;;;;;;;;;;;34.29;39.71;99668.19;1733413;82;20128;-76
2021/07/04 08:46:20;;;;;;;;;;;;;;;34.31;39.82;99663.09;1740472;81;20280;-77
2021/07/04 08:48:48;;;;;;;;;;;;;;;34.30;39.25;99675.36;1745738;81;20131;-78
2021/07/04 08:51:16;;;;;;;;;;;;;;;34.29;38.32;99675.13;1715054;82;20131;-77
2021/07/04 08:53:42;;;;;;;;;;;;;;;34.28;38.19;99672.09;1735508;81;20176;-78
2021/07/04 08:56:07;;;;;;;;;;;;;;;34.24;38.50;99668.34;1706026;84;20196;-77
2021/07/04 08:58:33;;;;;;;;;;;;;;;34.20;38.85;99657.69;1736528;82;20360;-77
2021/07/04 09:01:17;;;;;;;;;;;;;;;34.20;39.24;99656.30;1738346;81;20174;-77
2021/07/04 09:03:56;;;;;;;;;;;;;;;34.24;39.31;99660.59;1731981;81;20821;-77
2021/07/04 09:06:44;;;;;;;;;;;;;;;34.22;38.82;99649.81;1706517;84;20556;-77
2021/07/04 09:09:28;;;;;;;;;;;;;;;34.15;38.50;99652.30;1732943;81;20289;-77
2021/07/04 09:12:10;;;;;;;;;;;;;;;34.10;38.83;99648.89;1724503;82;20200;-78
2021/07/04 09:14:46;;;;;;;;;;;;;;;34.05;38.45;99649.91;1723190;82;20426;-78
2021/07/04 09:17:16;;;;;;;;;;;;;;;34.00;39.13;99643.14;1710298;81;20116;-76
2021/07/04 09:19:54;;;;;;;;;;;;;;;34.00;39.73;99651.48;1734762;81;20615;-77
2021/07/04 09:22:31;;;;;;;;;;;;;;;33.99;39.29;99647.08;1735627;82;20096;-77
2021/07/04 09:25:06;;;;;;;;;;;;;;;34.08;39.43;99658.97;1734250;82;20141;-77
2021/07/04 09:27:32;;;;;;;;;;;;;;;34.06;39.64;99658.47;1723579;82;20144;-76
2021/07/04 09:29:58;;;;;;;;;;;;;;;34.02;39.54;99658.34;1706563;84;20213;-77
2021/07/04 09:32:27;;;;;;;;;;;;;;;34.01;39.46;99664.22;1739298;82;20166;-77
2021/07/04 09:35:01;;;;;;;;;;;;;;;33.93;39.17;99655.31;1736247;82;20101;-77
2021/07/04 09:37:29;;;;;;;;;;;;;;;33.83;39.32;99651.76;1736213;82;20165;-77
2021/07/04 09:40:14;;;;;;;;;;;;;;;33.75;39.25;99645.69;1738679;82;20301;-77
2021/07/04 09:43:14;;;;;;;;;;;;;;;33.66;39.70;99642.67;1735948;82;20134;-77
2021/07/04 09:45:47;;;;;;;;;;;;;;;33.54;39.99;99640.61;1734950;81;20568;-77
2021/07/04 09:48:32;;;;;;;;;;;;;;;33.44;40.23;99636.23;1735483;81;20138;-77
2021/07/04 09:51:11;;;;;;;;;;;;;;;33.39;40.29;99643.89;1734802;81;20177;-77
2021/07/04 09:53:44;;;;;;;;;;;;;;;33.36;40.68;99642.58;1736372;81;20149;-78
2021/07/04 09:56:13;;;;;;;;;;;;;;;33.31;41.05;99639.41;1723200;81;20488;-78
2021/07/04 09:58:41;;;;;;;;;;;;;;;33.28;41.28;99638.67;1727906;83;20183;-77
2021/07/04 10:01:07;;;;;;;;;;;;;;;33.25;41.29;99631.02;1731711;82;20187;-77
2021/07/04 10:03:41;;;;;;;;;;;;;;;33.23;41.38;99626.93;1735068;82;20159;-78
2021/07/04 10:06:10;;;;;;;;;;;;;;;33.17;41.36;99623.52;1735103;82;20144;-78
2021/07/04 10:08:36;;;;;;;;;;;;;;;33.15;41.76;99622.20;1734411;82;20144;-78
2021/07/04 10:11:10;;;;;;;;;;;;;;;33.10;41.86;99620.41;1735805;82;20430;-77
2021/07/04 10:13:37;;;;;;;;;;;;;;;33.04;42.03;99610.64;1737946;82;20445;-77
2021/07/04 10:16:05;;;;;;;;;;;;;;;32.98;42.36;99600.88;1738985;82;20534;-76
2021/07/04 10:18:31;;;;;;;;;;;;;;;32.94;42.47;99594.34;1738679;82;20183;-76
2021/07/04 10:20:59;;;;;;;;;;;;;;;32.92;42.78;99599.39;1738231;82;20198;-77
2021/07/04 10:23:27;;;;;;;;;;;;;;;32.92;42.42;99600.78;1739128;82;20182;-77
2021/07/04 10:25:54;;;;;;;;;;;;;;;32.86;42.62;99600.11;1738902;82;20130;-77
2021/07/04 10:28:34;;;;;;;;;;;;;;;32.82;42.79;99598.55;1740073;82;20464;-77
2021/07/04 10:31:03;;;;;;;;;;;;;;;32.79;43.02;99602.00;1738281;82;20218;-77
2021/07/04 10:33:34;;;;;;;;;;;;;;;32.76;42.88;99590.16;1738859;82;20217;-78
2021/07/04 10:36:11;;;;;;;;;;;;;;;32.76;42.92;99598.48;1737663;81;20238;-77
2021/07/04 10:38:56;;;;;;;;;;;;;;;32.76;43.18;99598.48;1706919;84;20331;-77
2021/07/04 10:41:28;;;;;;;;;;;;;;;32.76;42.82;99599.88;1712732;83;20433;-77
2021/07/04 10:44:01;;;;;;;;;;;;;;;32.76;42.76;99615.13;1679515;83;20480;-76
2021/07/04 10:46:48;;;;;;;;;;;;;;;32.76;42.67;99615.13;1737866;81;20199;-77
2021/07/04 10:49:22;;;;;;;;;;;;;;;32.74;42.57;99613.23;1760095;81;20173;-77
2021/07/04 10:52:09;;;;;;;;;;;;;;;32.71;42.99;99608.36;1727802;82;20140;-77
2021/07/04 10:54:50;;;;;;;;;;;;;;;32.72;43.32;99611.95;1761385;81;20138;-76
2021/07/04 10:57:14;;;;;;;;;;;;;;;32.73;42.95;99609.41;1760878;81;20150;-76
2021/07/04 11:00:07;;;;;;;;;;;;;;;32.72;42.83;99616.92;1708494;83;20150;-76
2021/07/04 11:02:58;;;;;;;;;;;;;;;32.70;42.81;99609.48;1729910;82;20162;-77
2021/07/04 11:05:38;;;;;;;;;;;;;;;32.65;42.83;99602.71;1737002;82;20520;-76
2021/07/04 11:08:14;;;;;;;;;;;;;;;32.63;43.18;99603.63;1738307;82;20143;-78
2021/07/04 11:10:50;;;;;;;;;;;;;;;32.62;43.51;99599.23;1737779;82;20405;-78
2021/07/04 11:13:23;;;;;;;;;;;;;;;32.63;43.77;99606.39;1737919;81;20143;-77
2021/07/04 11:16:07;;;;;;;;;;;;;;;32.66;43.33;99613.23;1737850;82;20144;-76
2021/07/04 11:18:42;;;;;;;;;;;;;;;32.66;43.03;99613.23;1717265;81;20150;-76
2021/07/04 11:21:09;;;;;;;;;;;;;;;32.63;42.89;99602.23;1725865;82;20162;-76
2021/07/04 11:23:34;;;;;;;;;;;;;;;32.62;43.04;99604.77;1735094;82;20407;-77
2021/07/04 11:26:10;;;;;;;;;;;;;;;32.62;43.20;99603.95;1743641;81;20139;-76
2021/07/04 11:28:37;;;;;;;;;;;;;;;32.68;43.09;99595.14;1737534;81;20443;-76
2021/07/04 11:31:22;;;;;;;;;;;;;;;32.61;43.28;99593.98;1735027;82;20167;-77
2021/07/04 11:33:51;;;;;;;;;;;;;;;32.61;43.37;99589.83;1704303;84;20149;-77
2021/07/04 11:36:24;;;;;;;;;;;;;;;32.61;43.21;99594.80;1737648;81;20459;-76
2021/07/04 11:39:02;;;;;;;;;;;;;;;32.60;43.09;99593.75;1702238;84;20212;-76
2021/07/04 11:41:37;;;;;;;;;;;;;;;32.58;43.01;99592.70;1701305;84;20226;-76
2021/07/04 11:44:15;;;;;;;;;;;;;;;32.56;43.22;99597.73;1682459;84;20194;-77
2021/07/04 11:46:44;;;;;;;;;;;;;;;32.54;43.47;99595.88;1702200;84;20598;-77
2021/07/04 11:49:12;;;;;;;;;;;;;;;32.53;43.36;99598.41;1703274;84;20190;-77
2021/07/04 11:51:51;;;;;;;;;;;;;;;32.52;43.51;99593.98;1682852;84;20200;-77
2021/07/04 11:54:20;;;;;;;;;;;;;;;32.51;42.91;99590.97;1703667;84;20459;-78
2021/07/04 11:56:52;;;;;;;;;;;;;;;32.49;42.99;99589.11;1708141;81;20189;-77
2021/07/04 11:59:23;;;;;;;;;;;;;;;32.46;42.74;99594.72;1717558;82;20149;-77
2021/07/04 12:01:57;;;;;;;;;;;;;;;32.44;42.60;99590.66;1735034;82;20181;-77
2021/07/04 12:04:37;;;;;;;;;;;;;;;32.42;42.76;99590.96;1738787;82;20426;-77
2021/07/04 12:07:08;;;;;;;;;;;;;;;32.40;42.84;99593.83;1735613;82;20154;-77
2021/07/04 12:09:48;;;;;;;;;;;;;;;32.39;43.17;99590.82;1735612;81;20131;-77
2021/07/04 12:12:22;;;;;;;;;;;;;;;32.37;42.99;99599.98;1738648;82;20437;-77
2021/07/04 12:14:53;;;;;;;;;;;;;;;32.36;42.76;99595.58;1736224;82;20123;-77
2021/07/04 12:17:31;;;;;;;;;;;;;;;32.35;42.99;99592.00;1739268;82;20144;-77
2021/07/04 12:20:03;;;;;;;;;;;;;;;32.36;42.89;99581.73;1737877;82;20550;-77
2021/07/04 12:22:31;;;;;;;;;;;;;;;32.36;43.04;99577.56;1740683;81;20229;-77
2021/07/04 12:24:57;;;;;;;;;;;;;;;32.37;43.08;99582.80;1735942;82;20173;-77
2021/07/04 12:27:35;;;;;;;;;;;;;;;32.39;43.48;99573.61;1738186;82;20167;-77
2021/07/04 12:30:07;;;;;;;;;;;;;;;32.39;42.85;99570.84;1735512;82;20128;-77
2021/07/04 12:32:39;;;;;;;;;;;;;;;32.39;42.22;99570.03;1735602;82;20181;-77
2021/07/04 12:35:07;;;;;;;;;;;;;;;32.40;42.02;99566.11;1736169;81;20134;-78
2021/07/04 12:37:33;;;;;;;;;;;;;;;32.39;42.06;99575.00;1732771;82;21115;-77
2021/07/04 12:40:11;;;;;;;;;;;;;;;32.38;42.10;99568.38;1731429;82;20161;-77
2021/07/04 12:42:36;;;;;;;;;;;;;;;32.37;41.99;99564.80;1733860;81;20289;-77
2021/07/04 12:45:12;;;;;;;;;;;;;;;32.35;41.70;99562.09;1733874;81;20168;-77
2021/07/04 12:47:38;;;;;;;;;;;;;;;32.32;41.50;99565.73;1734901;82;20170;-77
2021/07/04 12:50:07;;;;;;;;;;;;;;;32.31;41.52;99566.88;1734118;81;20198;-77
2021/07/04 12:52:34;;;;;;;;;;;;;;;32.30;41.75;99566.64;1735027;82;20139;-77
2021/07/04 12:55:00;;;;;;;;;;;;;;;32.27;41.51;99557.58;1765091;81;20543;-77
2021/07/04 12:57:35;;;;;;;;;;;;;;;32.26;41.57;99555.96;1734715;81;20171;-77
2021/07/04 13:00:12;;;;;;;;;;;;;;;32.25;41.83;99557.11;1730948;81;20151;-77